KSTK/STK METAR and TAF weather

Enter ICAO airport designator
Station Type Date Time Source
KSTK METAR 2021/01/27 13:15 UTC NOAA

KSTK 271315Z AUTO 23003KT 10SM CLR M18/M20 A3011 RMK AO2


Station Type Date Time Source
KSTK Decoded METAR 2021/01/27 13:15 UTC NOAA

Station name not available
Jan 27, 2021 - 08:15 AM EST / 2021.01.27 1315 UTC
Wind: from the SW (230 degrees) at 3 MPH (3 KT):0
Visibility: 10 mile(s):0
Sky conditions: clear
Temperature: 0 F (-18 C)
Dew Point: -4 F (-20 C)
Relative Humidity: 84%
Pressure (altimeter): 30.11 in. Hg (1019 hPa)
ob: KSTK 271315Z AUTO 23003KT 10SM CLR M18/M20 A3011 RMK AO2
cycle: 13

Station Type Date Time Source
KSTK TAF UTC NOAA

Error!

Example: see airport list